Time;durP1;ratioP1;P1;durP2;ratioP2;P2;SDS_P1;SDS_P2;PMS_P1;PMS_P2;Temp;Humidity;BMP_temperature;BMP_pressure;BME280_temperature;BME280_humidity;BME280_pressure;Samples;Min_cycle;Max_cycle;Signal;HPM_P1;HPM_P2
2023/10/20 00:02:01;;;;;;;21.48;16.85;;;7.30;99.90;;;;;;5077009;28;20048;-79
2023/10/20 00:04:28;;;;;;;20.42;16.55;;;7.30;99.90;;;;;;5107341;28;20102;-79
2023/10/20 00:06:56;;;;;;;20.10;16.27;;;7.30;99.90;;;;;;5101436;28;20043;-78
2023/10/20 00:09:22;;;;;;;21.83;17.60;;;7.30;99.90;;;;;;5101498;28;20090;-77
2023/10/20 00:11:47;;;;;;;23.65;17.05;;;7.30;99.90;;;;;;5083701;28;20115;-78
2023/10/20 00:14:13;;;;;;;22.60;17.13;;;7.20;99.90;;;;;;5090620;28;20131;-79
2023/10/20 00:16:39;;;;;;;21.92;15.98;;;7.30;99.90;;;;;;5079817;28;20052;-79
2023/10/20 00:19:06;;;;;;;21.20;15.73;;;7.30;99.90;;;;;;5086786;28;20048;-80
2023/10/20 00:21:32;;;;;;;20.73;15.47;;;7.50;99.90;;;;;;5094752;28;20037;-79
2023/10/20 00:23:58;;;;;;;21.05;16.33;;;7.30;99.90;;;;;;5097235;28;20382;-79
2023/10/20 00:26:23;;;;;;;21.88;15.90;;;7.30;99.90;;;;;;5100854;28;20036;-77
2023/10/20 00:28:49;;;;;;;21.70;15.65;;;7.30;99.90;;;;;;5097940;28;20182;-80
2023/10/20 00:31:16;;;;;;;23.30;16.60;;;7.30;99.90;;;;;;5099855;28;20047;-80
2023/10/20 00:33:43;;;;;;;23.23;16.35;;;7.30;99.90;;;;;;5087602;28;20040;-78
2023/10/20 00:36:09;;;;;;;22.83;17.38;;;7.30;99.90;;;;;;5103588;28;20366;-79
2023/10/20 00:38:36;;;;;;;22.83;16.02;;;7.30;99.90;;;;;;5084137;28;20028;-80
2023/10/20 00:41:02;;;;;;;21.58;15.25;;;7.30;99.90;;;;;;5087759;28;20429;-80
2023/10/20 00:43:38;;;;;;;22.52;15.80;;;7.30;99.90;;;;;;5100786;28;20036;-78
2023/10/20 00:46:11;;;;;;;25.52;18.25;;;7.30;99.90;;;;;;5086874;28;20386;-79
2023/10/20 00:48:37;;;;;;;24.30;18.00;;;7.30;99.90;;;;;;5107792;27;20036;-79
2023/10/20 00:51:06;;;;;;;21.95;16.45;;;7.30;99.90;;;;;;5083416;28;20048;-80
2023/10/20 00:53:34;;;;;;;24.30;16.42;;;7.30;99.90;;;;;;5106220;28;20040;-79
2023/10/20 00:56:03;;;;;;;24.50;17.88;;;7.30;99.90;;;;;;5092460;28;20044;-79
2023/10/20 00:58:31;;;;;;;21.30;16.42;;;7.30;99.90;;;;;;5094409;28;20056;-78
2023/10/20 01:00:57;;;;;;;;;;;7.30;99.90;;;;;;5084395;28;20040;-78
2023/10/20 01:03:23;;;;;;;23.45;17.25;;;7.30;99.90;;;;;;5096187;28;20398;-79
2023/10/20 01:05:51;;;;;;;25.75;18.05;;;6.90;99.90;;;;;;5090483;28;20050;-77
2023/10/20 01:08:17;;;;;;;29.23;19.80;;;7.60;99.90;;;;;;5097214;28;20108;-78
2023/10/20 01:10:43;;;;;;;25.25;18.02;;;8.20;99.90;;;;;;5098385;28;20477;-79
2023/10/20 01:13:08;;;;;;;30.95;20.25;;;7.30;99.90;;;;;;5102346;28;20408;-79
2023/10/20 01:15:37;;;;;;;31.38;21.23;;;7.30;99.90;;;;;;5080099;28;20043;-80
2023/10/20 01:18:07;;;;;;;31.40;20.40;;;7.30;99.90;;;;;;5090411;28;20451;-83
2023/10/20 01:20:33;;;;;;;31.00;21.52;;;7.30;99.90;;;;;;5093356;28;20170;-80
2023/10/20 01:22:59;;;;;;;33.67;22.17;;;7.50;99.90;;;;;;5099029;28;20053;-80
2023/10/20 01:25:26;;;;;;;33.42;23.10;;;7.50;99.90;;;;;;5096897;28;20059;-79
2023/10/20 01:27:52;;;;;;;41.37;25.77;;;7.30;99.90;;;;;;5080527;28;20055;-80
2023/10/20 01:30:18;;;;;;;39.65;24.88;;;7.30;99.90;;;;;;5114258;28;20047;-80
2023/10/20 01:32:44;;;;;;;41.85;25.38;;;7.30;99.90;;;;;;5097487;28;20427;-80
2023/10/20 01:35:10;;;;;;;41.72;25.85;;;7.30;99.90;;;;;;5095216;28;20044;-78
2023/10/20 01:37:37;;;;;;;43.03;24.90;;;7.30;99.90;;;;;;5094998;28;20071;-78
2023/10/20 01:40:04;;;;;;;42.42;26.70;;;7.30;99.90;;;;;;5086818;28;20045;-78
2023/10/20 01:42:29;;;;;;;47.05;28.38;;;7.30;99.90;;;;;;5119372;28;20072;-78
2023/10/20 01:44:55;;;;;;;53.70;29.70;;;7.40;99.90;;;;;;5107057;28;20051;-80
2023/10/20 01:47:21;;;;;;;47.42;28.33;;;7.30;99.90;;;;;;5103948;28;20040;-78
2023/10/20 01:49:46;;;;;;;46.97;28.02;;;7.30;99.90;;;;;;5102004;28;20089;-79
2023/10/20 01:52:12;;;;;;;44.92;28.08;;;7.30;99.90;;;;;;5095220;28;20504;-79
2023/10/20 01:54:38;;;;;;;53.50;29.95;;;7.30;99.90;;;;;;5104616;28;20074;-78
2023/10/20 01:57:03;;;;;;;49.08;28.67;;;7.40;99.90;;;;;;5098441;28;20077;-79
2023/10/20 01:59:29;;;;;;;44.55;27.95;;;7.40;99.90;;;;;;5098175;28;20036;-79
2023/10/20 02:01:55;;;;;;;51.08;29.65;;;7.30;99.90;;;;;;5091421;28;20059;-79
2023/10/20 02:04:21;;;;;;;47.85;29.23;;;7.30;99.90;;;;;;5087150;28;20051;-78
2023/10/20 02:06:47;;;;;;;48.78;29.73;;;7.40;99.90;;;;;;5103958;28;20043;-78
2023/10/20 02:09:12;;;;;;;47.17;28.58;;;7.40;99.90;;;;;;5093934;28;20127;-79
2023/10/20 02:11:38;;;;;;;55.38;31.10;;;7.40;99.90;;;;;;5108903;28;20083;-79
2023/10/20 02:14:04;;;;;;;52.67;30.65;;;7.40;99.90;;;;;;5099069;28;20043;-78
2023/10/20 02:16:34;;;;;;;54.10;30.50;;;7.40;99.90;;;;;;5092420;28;20108;-79
2023/10/20 02:19:00;;;;;;;49.10;29.98;;;7.40;99.90;;;;;;5088678;28;20399;-78
2023/10/20 02:21:29;;;;;;;49.97;30.27;;;7.40;99.90;;;;;;5098122;28;20128;-78
2023/10/20 02:23:55;;;;;;;46.03;29.33;;;7.40;99.90;;;;;;5110418;28;20068;-80
2023/10/20 02:26:21;;;;;;;57.83;31.55;;;7.40;99.90;;;;;;5107486;28;20040;-78
2023/10/20 02:28:47;;;;;;;51.72;31.25;;;7.30;99.90;;;;;;5108900;28;20481;-77
2023/10/20 02:31:17;;;;;;;56.33;32.22;;;7.40;99.90;;;;;;5097262;28;20410;-79
2023/10/20 02:33:46;;;;;;;61.40;33.22;;;7.40;99.90;;;;;;5102224;28;20062;-79
2023/10/20 02:36:20;;;;;;;62.95;33.88;;;7.40;99.90;;;;;;5107098;28;20443;-81
2023/10/20 02:38:47;;;;;;;54.65;33.63;;;7.40;99.90;;;;;;5102845;28;20040;-80
2023/10/20 02:41:14;;;;;;;56.13;33.33;;;7.40;99.90;;;;;;5110240;28;20044;-78
2023/10/20 02:43:40;;;;;;;67.85;35.67;;;7.40;99.90;;;;;;5091715;28;20059;-79
2023/10/20 02:46:07;;;;;;;60.83;34.45;;;7.40;99.90;;;;;;5095345;28;20135;-79
2023/10/20 02:48:33;;;;;;;63.53;35.60;;;7.40;99.90;;;;;;5115816;28;20044;-78
2023/10/20 02:51:08;;;;;;;67.20;36.30;;;7.30;99.90;;;;;;5125097;27;20057;-78
2023/10/20 02:53:34;;;;;;;61.92;35.92;;;7.30;99.90;;;;;;5108625;28;20359;-80
2023/10/20 02:56:00;;;;;;;68.88;36.97;;;7.90;99.90;;;;;;5110299;28;20040;-79
2023/10/20 02:58:26;;;;;;;58.03;34.47;;;7.30;99.90;;;;;;5110001;28;20513;-79
2023/10/20 03:00:53;;;;;;;61.70;36.00;;;7.30;99.90;;;;;;5107429;28;20035;-79
2023/10/20 03:03:19;;;;;;;70.90;36.40;;;7.30;99.90;;;;;;5097418;28;20036;-78
2023/10/20 03:05:45;;;;;;;65.22;36.38;;;7.40;99.90;;;;;;5107044;28;20039;-79
2023/10/20 03:08:11;;;;;;;62.05;35.72;;;7.30;99.90;;;;;;5106422;28;20059;-79
2023/10/20 03:10:41;;;;;;;58.05;34.63;;;7.30;99.90;;;;;;5085997;28;20467;-78
2023/10/20 03:13:07;;;;;;;64.82;35.08;;;7.30;99.90;;;;;;5091731;28;20047;-79
2023/10/20 03:15:33;;;;;;;64.50;35.22;;;7.20;99.90;;;;;;5099655;28;20040;-78
2023/10/20 03:17:59;;;;;;;59.50;35.50;;;7.20;99.90;;;;;;5102544;28;20490;-79
2023/10/20 03:20:28;;;;;;;60.72;35.30;;;7.20;99.90;;;;;;5102195;28;20041;-80
2023/10/20 03:22:58;;;;;;;53.55;31.90;;;7.20;99.90;;;;;;5105700;28;20051;-79
2023/10/20 03:25:24;;;;;;;57.97;33.63;;;7.20;99.90;;;;;;5102926;28;20474;-79
2023/10/20 03:27:50;;;;;;;57.92;34.67;;;7.20;99.90;;;;;;5080751;28;20051;-80
2023/10/20 03:30:17;;;;;;;52.88;32.17;;;7.20;99.90;;;;;;5092573;28;20056;-80
2023/10/20 03:32:47;;;;;;;52.35;31.73;;;7.20;99.90;;;;;;5112892;28;20044;-78
2023/10/20 03:35:13;;;;;;;53.45;32.00;;;7.30;99.90;;;;;;5091316;28;20065;-79
2023/10/20 03:37:39;;;;;;;50.53;31.63;;;7.20;99.90;;;;;;5113234;28;20127;-79
2023/10/20 03:40:13;;;;;;;55.80;32.70;;;7.10;99.90;;;;;;5090575;28;20043;-80
2023/10/20 03:42:45;;;;;;;50.03;30.05;;;7.10;99.90;;;;;;5104391;28;20036;-80
2023/10/20 03:45:13;;;;;;;48.78;29.50;;;7.10;99.90;;;;;;5102739;28;20424;-79
2023/10/20 03:47:39;;;;;;;50.75;30.30;;;7.20;99.90;;;;;;5095838;28;20059;-79
2023/10/20 03:50:17;;;;;;;46.90;29.80;;;7.20;99.90;;;;;;5099485;28;20554;-78
2023/10/20 03:52:46;;;;;;;47.83;29.50;;;7.10;99.90;;;;;;5101995;28;20061;-78
2023/10/20 03:55:15;;;;;;;47.92;31.10;;;7.10;99.90;;;;;;5103122;28;20052;-78
2023/10/20 03:57:45;;;;;;;41.50;28.40;;;7.20;99.90;;;;;;5090385;28;20037;-78
2023/10/20 04:00:28;;;;;;;45.90;28.30;;;7.10;99.90;;;;;;5107739;28;20099;-79
2023/10/20 04:02:54;;;;;;;43.92;28.17;;;7.10;99.90;;;;;;5076111;28;20394;-79
2023/10/20 04:05:21;;;;;;;41.20;26.25;;;7.20;99.90;;;;;;5089729;28;20051;-79
2023/10/20 04:07:47;;;;;;;37.55;25.50;;;6.60;99.90;;;;;;5090856;28;20123;-79
2023/10/20 04:10:14;;;;;;;36.45;23.02;;;7.20;99.90;;;;;;5098416;28;20044;-79
2023/10/20 04:12:41;;;;;;;34.30;23.85;;;7.20;99.90;;;;;;5093242;28;20047;-77
2023/10/20 04:15:13;;;;;;;36.90;23.55;;;7.90;99.90;;;;;;5082198;28;20123;-77
2023/10/20 04:17:40;;;;;;;30.95;21.65;;;7.10;99.90;;;;;;5110249;28;20494;-78
2023/10/20 04:20:17;;;;;;;33.92;23.73;;;7.20;99.90;;;;;;5095316;28;20085;-78
2023/10/20 04:22:49;;;;;;;30.33;20.70;;;7.10;99.90;;;;;;5098697;28;20087;-78
2023/10/20 04:25:15;;;;;;;27.08;19.17;;;7.20;99.90;;;;;;5092796;28;20079;-81
2023/10/20 04:27:57;;;;;;;31.20;19.95;;;7.20;99.90;;;;;;5108416;28;20366;-79
2023/10/20 04:57:52;;;;;;;19.02;14.68;;;7.20;99.90;;;;;;5077860;28;19928;-78
2023/10/20 05:07:51;;;;;;;18.38;13.70;;;7.20;99.90;;;;;;5094193;28;20083;-80
2023/10/20 05:10:20;;;;;;;17.90;12.80;;;7.20;99.90;;;;;;5096767;28;20123;-77
2023/10/20 05:12:50;;;;;;;17.63;14.00;;;7.20;99.90;;;;;;5096047;28;20101;-79
2023/10/20 05:15:17;;;;;;;17.13;11.48;;;7.30;99.90;;;;;;5097251;28;20032;-79
2023/10/20 05:17:43;;;;;;;15.70;12.15;;;7.30;99.90;;;;;;5077070;28;20044;-77
2023/10/20 05:20:10;;;;;;;16.00;11.88;;;7.30;99.90;;;;;;5083114;28;20446;-81
2023/10/20 05:22:35;;;;;;;19.35;13.57;;;7.30;99.90;;;;;;5107801;27;20055;-79
2023/10/20 05:25:02;;;;;;;17.02;11.57;;;8.00;99.90;;;;;;5102152;28;20036;-80
2023/10/20 05:27:28;;;;;;;14.82;12.20;;;7.30;99.90;;;;;;5095284;28;20032;-78
2023/10/20 05:29:53;;;;;;;14.98;11.10;;;7.50;99.90;;;;;;5107067;28;20050;-77
2023/10/20 05:32:19;;;;;;;17.73;11.43;;;7.30;99.90;;;;;;5097222;28;20039;-79
2023/10/20 05:34:45;;;;;;;15.23;10.48;;;7.30;99.90;;;;;;5099390;28;20093;-78
2023/10/20 05:37:14;;;;;;;13.57;9.48;;;7.30;99.90;;;;;;5098229;28;20116;-78
2023/10/20 05:39:53;;;;;;;14.45;10.13;;;6.90;99.90;;;;;;5091878;28;20095;-79
2023/10/20 05:42:19;;;;;;;13.23;10.25;;;7.40;99.90;;;;;;5081967;28;20131;-80
2023/10/20 05:44:58;;;;;;;14.68;10.98;;;7.40;99.90;;;;;;5098656;28;20044;-80
2023/10/20 05:47:25;;;;;;;15.20;9.90;;;7.40;99.90;;;;;;5085001;28;20116;-79
2023/10/20 05:49:51;;;;;;;12.75;8.55;;;7.60;99.90;;;;;;5091191;28;20047;-78
2023/10/20 05:52:17;;;;;;;14.60;9.50;;;7.40;99.90;;;;;;5094818;28;20102;-78
2023/10/20 05:54:43;;;;;;;13.57;8.73;;;8.60;99.90;;;;;;5085154;28;20040;-79
2023/10/20 05:57:09;;;;;;;11.70;8.95;;;7.40;99.90;;;;;;5083157;28;20048;-79
2023/10/20 05:59:34;;;;;;;10.98;7.85;;;7.40;99.90;;;;;;5074454;28;20051;-81
2023/10/20 06:02:03;;;;;;;12.82;8.07;;;7.40;99.90;;;;;;5094348;28;20080;-79
2023/10/20 06:04:29;;;;;;;11.13;7.57;;;7.80;99.90;;;;;;5093559;28;20048;-80
2023/10/20 06:06:56;;;;;;;10.43;7.05;;;7.40;99.90;;;;;;5093787;28;20040;-79
2023/10/20 06:09:25;;;;;;;9.05;6.28;;;7.40;99.90;;;;;;5107658;28;20048;-81
2023/10/20 06:11:53;;;;;;;10.90;7.10;;;7.40;99.90;;;;;;5083152;28;20044;-79
2023/10/20 06:14:20;;;;;;;9.35;6.30;;;8.10;99.90;;;;;;5106625;28;20043;-80
2023/10/20 06:16:49;;;;;;;8.57;5.32;;;7.40;99.90;;;;;;5100094;28;20090;-79
2023/10/20 06:19:15;;;;;;;11.15;5.63;;;7.40;99.90;;;;;;5077413;28;20041;-80
2023/10/20 06:21:45;;;;;;;7.93;5.80;;;7.40;99.90;;;;;;5082537;28;20047;-78
2023/10/20 06:24:11;;;;;;;7.57;4.82;;;7.40;99.90;;;;;;5109506;28;20038;-78
2023/10/20 06:26:38;;;;;;;9.45;5.72;;;7.40;99.90;;;;;;5113239;28;20044;-79
2023/10/20 06:34:41;;;;;;;7.72;5.47;;;7.40;99.90;;;;;;5099495;28;20391;-79
2023/10/20 06:37:13;;;;;;;7.50;4.93;;;7.30;99.90;;;;;;5096084;28;20051;-80
2023/10/20 06:39:39;;;;;;;7.53;5.05;;;7.30;99.90;;;;;;5089926;28;20083;-79
2023/10/20 06:42:09;;;;;;;7.35;4.57;;;7.30;99.90;;;;;;5091414;28;20481;-79
2023/10/20 06:44:38;;;;;;;11.40;5.05;;;7.30;99.90;;;;;;5076057;28;20055;-79
2023/10/20 06:47:04;;;;;;;6.82;4.85;;;7.30;99.90;;;;;;5086748;28;20047;-80
2023/10/20 06:49:32;;;;;;;9.38;5.43;;;7.20;99.90;;;;;;5057909;28;20044;-77
2023/10/20 06:52:03;;;;;;;9.63;4.97;;;7.60;99.90;;;;;;5088463;28;20044;-78
2023/10/20 06:54:29;;;;;;;7.22;5.30;;;7.20;99.90;;;;;;5091020;28;20110;-79
2023/10/20 06:56:55;;;;;;;8.18;5.40;;;7.20;99.90;;;;;;5075579;28;20059;-76
2023/10/20 06:59:21;;;;;;;9.18;4.95;;;7.50;99.90;;;;;;5084565;28;20116;-78
2023/10/20 07:01:47;;;;;;;7.10;5.32;;;7.20;99.90;;;;;;5069820;28;20072;-78
2023/10/20 07:04:13;;;;;;;8.50;5.18;;;7.20;99.90;;;;;;5113315;28;20052;-78
2023/10/20 07:06:41;;;;;;;11.40;5.20;;;7.20;99.90;;;;;;5089196;28;20072;-79
2023/10/20 07:09:13;;;;;;;;;;;7.20;99.90;;;;;;5075616;28;20039;-79
2023/10/20 07:11:40;;;;;;;7.00;4.38;;;6.80;99.90;;;;;;5097668;28;20330;-79
2023/10/20 07:14:06;;;;;;;9.35;4.68;;;7.10;99.90;;;;;;5090992;28;20041;-77
2023/10/20 07:16:33;;;;;;;7.30;5.10;;;7.10;99.90;;;;;;5092185;28;20044;-78
2023/10/20 07:19:00;;;;;;;6.60;4.75;;;7.10;99.90;;;;;;5080753;28;20115;-78
2023/10/20 07:21:25;;;;;;;6.90;5.20;;;7.10;99.90;;;;;;5099232;28;20051;-79
2023/10/20 07:23:52;;;;;;;7.15;4.85;;;7.10;99.90;;;;;;5102868;28;20036;-79
2023/10/20 07:26:24;;;;;;;7.13;4.80;;;7.10;99.90;;;;;;5099723;28;20051;-78
2023/10/20 07:28:50;;;;;;;9.75;5.00;;;7.00;99.90;;;;;;5093006;28;20047;-79
2023/10/20 07:31:18;;;;;;;5.57;4.65;;;7.10;99.90;;;;;;5079982;28;20048;-78
2023/10/20 07:33:46;;;;;;;6.78;4.68;;;7.60;99.90;;;;;;5092877;28;20044;-78
2023/10/20 07:36:12;;;;;;;8.23;4.40;;;7.00;99.90;;;;;;5101147;28;20032;-78
2023/10/20 07:38:38;;;;;;;6.55;4.43;;;7.00;99.90;;;;;;5093200;28;20083;-78
2023/10/20 07:41:09;;;;;;;6.85;5.00;;;7.00;99.90;;;;;;5100502;28;20036;-78
2023/10/20 07:43:35;;;;;;;7.57;5.10;;;7.40;99.90;;;;;;5096374;28;20039;-79
2023/10/20 07:46:02;;;;;;;7.47;5.00;;;7.00;99.90;;;;;;5082701;28;20067;-77
2023/10/20 07:48:28;;;;;;;7.88;5.38;;;7.00;99.90;;;;;;5080924;28;20100;-78
2023/10/20 07:50:56;;;;;;;8.07;5.30;;;7.00;99.90;;;;;;5116980;28;20048;-79
2023/10/20 07:53:22;;;;;;;5.95;5.05;;;6.90;99.90;;;;;;5100697;28;20142;-78
2023/10/20 07:55:48;;;;;;;8.57;5.93;;;7.00;99.90;;;;;;5080048;28;20485;-78
2023/10/20 07:58:15;;;;;;;9.95;6.03;;;6.90;99.90;;;;;;5095167;28;20044;-79
2023/10/20 08:00:41;;;;;;;9.00;6.30;;;6.90;99.90;;;;;;5097646;28;20051;-79
2023/10/20 08:03:08;;;;;;;8.48;6.60;;;7.00;99.90;;;;;;5081602;28;20055;-79
2023/10/20 08:05:35;;;;;;;;;;;6.90;99.90;;;;;;5094589;28;20056;-77
2023/10/20 08:08:04;;;;;;;8.70;6.40;;;6.90;99.90;;;;;;5079874;28;19924;-77
2023/10/20 08:10:33;;;;;;;10.48;6.15;;;6.90;99.90;;;;;;5070249;28;20047;-79
2023/10/20 08:12:59;;;;;;;10.43;6.93;;;6.90;99.90;;;;;;5097608;28;20071;-77
2023/10/20 08:15:28;;;;;;;10.85;6.05;;;6.80;99.90;;;;;;5095262;28;20044;-78
2023/10/20 08:17:57;;;;;;;7.80;5.30;;;6.80;99.90;;;;;;5094423;28;20490;-78
2023/10/20 08:20:23;;;;;;;9.18;5.40;;;6.80;99.90;;;;;;5099319;28;20031;-77
2023/10/20 08:22:51;;;;;;;9.45;5.38;;;6.80;99.90;;;;;;5102204;28;20063;-78
2023/10/20 08:25:17;;;;;;;;;;;6.80;99.90;;;;;;5098875;28;20162;-77
2023/10/20 08:27:47;;;;;;;8.32;5.00;;;6.80;99.90;;;;;;5086405;28;19959;-78
2023/10/20 08:30:19;;;;;;;7.28;4.70;;;6.80;99.90;;;;;;5091241;28;20044;-78
2023/10/20 08:32:45;;;;;;;7.35;5.30;;;6.80;99.90;;;;;;5103768;28;20119;-78
2023/10/20 08:35:14;;;;;;;7.97;5.00;;;6.80;99.90;;;;;;5088953;28;20476;-77
2023/10/20 08:37:40;;;;;;;9.38;5.45;;;6.80;99.90;;;;;;5070166;28;20036;-76
2023/10/20 08:40:10;;;;;;;6.60;4.35;;;6.80;99.90;;;;;;5079965;28;20113;-76
2023/10/20 08:42:40;;;;;;;6.03;4.07;;;6.70;99.90;;;;;;5100216;28;20079;-76
2023/10/20 08:45:08;;;;;;;5.75;3.70;;;6.70;99.90;;;;;;5098687;28;20055;-75
2023/10/20 08:47:34;;;;;;;7.15;4.55;;;6.70;99.90;;;;;;5102557;28;20040;-76
2023/10/20 08:50:07;;;;;;;6.18;4.30;;;6.70;99.90;;;;;;5094939;28;20048;-75
2023/10/20 08:52:36;;;;;;;5.53;4.13;;;6.70;99.90;;;;;;5090845;28;20056;-80
2023/10/20 08:55:04;;;;;;;8.10;4.32;;;6.60;99.90;;;;;;5064693;28;20408;-77
2023/10/20 08:57:30;;;;;;;8.27;4.90;;;6.60;99.90;;;;;;5096064;28;20048;-76
2023/10/20 08:59:55;;;;;;;6.05;4.05;;;6.60;99.90;;;;;;5086492;28;20048;-76
2023/10/20 09:02:21;;;;;;;5.72;3.78;;;6.60;99.90;;;;;;5085323;28;20048;-76
2023/10/20 09:04:53;;;;;;;6.35;4.03;;;6.60;99.90;;;;;;5105766;28;20050;-77
2023/10/20 09:07:22;;;;;;;8.95;4.53;;;6.60;99.90;;;;;;5080142;28;20473;-77
2023/10/20 09:09:53;;;;;;;7.78;4.75;;;6.60;99.90;;;;;;5085771;28;20040;-76
2023/10/20 09:12:19;;;;;;;8.80;4.97;;;6.60;99.90;;;;;;5059663;28;20040;-75
2023/10/20 09:14:45;;;;;;;9.23;4.53;;;7.50;99.90;;;;;;5075154;28;20086;-77
2023/10/20 09:17:24;;;;;;;7.05;4.07;;;6.60;99.90;;;;;;5078893;28;20044;-78
2023/10/20 09:19:49;;;;;;;7.07;4.18;;;6.00;99.90;;;;;;5094658;28;20040;-76
2023/10/20 09:22:25;;;;;;;6.82;4.10;;;6.50;99.90;;;;;;5077534;28;20460;-76
2023/10/20 09:24:54;;;;;;;8.15;4.10;;;7.40;99.90;;;;;;5103330;28;20044;-77
2023/10/20 09:27:19;;;;;;;6.75;4.60;;;6.50;99.90;;;;;;5069794;28;20040;-76
2023/10/20 09:29:45;;;;;;;6.93;3.53;;;7.00;99.90;;;;;;5078315;28;20050;-75
2023/10/20 09:32:11;;;;;;;8.95;3.60;;;6.50;99.90;;;;;;5090912;28;20462;-77
2023/10/20 09:34:37;;;;;;;6.90;3.50;;;6.50;99.90;;;;;;5091255;28;20063;-77
2023/10/20 09:37:06;;;;;;;7.07;3.75;;;6.40;99.90;;;;;;5088665;28;20075;-78
2023/10/20 09:39:39;;;;;;;6.10;3.17;;;6.50;99.90;;;;;;5061183;28;20049;-77
2023/10/20 09:42:07;;;;;;;5.75;3.30;;;6.40;99.90;;;;;;5075722;28;20127;-78
2023/10/20 09:44:48;;;;;;;;;;;6.50;99.90;;;;;;5091175;28;20084;-75
2023/10/20 09:47:42;;;;;;;6.28;3.00;;;6.40;99.90;;;;;;5089094;28;19927;-77
2023/10/20 09:50:11;;;;;;;5.13;3.15;;;6.40;99.90;;;;;;5076669;28;20048;-77
2023/10/20 09:52:39;;;;;;;4.80;2.80;;;6.40;99.90;;;;;;5087096;28;20438;-77
2023/10/20 09:55:07;;;;;;;5.90;3.20;;;6.40;99.90;;;;;;5087660;28;20055;-78
2023/10/20 09:57:34;;;;;;;5.75;3.47;;;6.40;99.90;;;;;;5091782;28;20059;-75
2023/10/20 10:00:04;;;;;;;5.35;3.10;;;6.30;99.90;;;;;;5074861;28;20040;-78
2023/10/20 10:02:31;;;;;;;4.13;2.40;;;6.30;99.90;;;;;;5095018;28;20091;-76
2023/10/20 10:04:57;;;;;;;6.00;2.92;;;6.30;99.90;;;;;;5099756;28;20052;-77
2023/10/20 10:07:32;;;;;;;6.15;2.90;;;6.60;99.90;;;;;;5101517;28;20036;-78
2023/10/20 10:09:58;;;;;;;5.85;3.17;;;6.30;99.90;;;;;;5084509;28;20043;-78
2023/10/20 10:12:29;;;;;;;7.03;2.92;;;6.30;99.90;;;;;;5095103;28;20115;-77
2023/10/20 10:15:06;;;;;;;4.63;2.63;;;6.40;99.90;;;;;;5077287;28;20040;-76
2023/10/20 10:17:42;;;;;;;4.15;2.40;;;6.30;99.90;;;;;;5089991;28;20048;-78
2023/10/20 10:20:25;;;;;;;3.65;2.17;;;6.30;99.90;;;;;;5089464;28;20115;-77
2023/10/20 10:23:09;;;;;;;4.28;2.20;;;6.30;99.90;;;;;;5084937;28;20485;-77
2023/10/20 10:25:39;;;;;;;4.10;2.60;;;6.30;99.90;;;;;;5083221;28;20044;-76
2023/10/20 10:28:16;;;;;;;5.07;2.63;;;6.30;99.90;;;;;;5064610;28;20596;-77
2023/10/20 10:30:44;;;;;;;3.72;2.33;;;6.30;99.90;;;;;;5090825;28;20064;-76
2023/10/20 10:33:13;;;;;;;3.37;2.03;;;6.30;99.90;;;;;;5094959;28;20115;-77
2023/10/20 10:35:39;;;;;;;3.50;2.10;;;6.30;99.90;;;;;;5077831;28;20344;-76
2023/10/20 10:38:28;;;;;;;8.73;2.75;;;6.30;99.90;;;;;;5100243;28;20109;-76
2023/10/20 10:40:56;;;;;;;4.40;2.60;;;6.90;99.90;;;;;;5084514;28;20124;-76
2023/10/20 10:43:22;;;;;;;;;;;6.30;99.90;;;;;;5083107;28;20497;-75
2023/10/20 10:45:54;;;;;;;3.95;2.20;;;6.30;99.90;;;;;;5084106;28;19920;-76
2023/10/20 10:48:24;;;;;;;3.92;2.45;;;7.20;99.90;;;;;;5085420;28;20047;-76
2023/10/20 10:50:51;;;;;;;3.70;2.10;;;6.20;99.90;;;;;;5097430;28;20393;-78
2023/10/20 10:53:17;;;;;;;3.33;2.33;;;6.20;99.90;;;;;;5097164;28;20048;-76
2023/10/20 10:55:43;;;;;;;4.22;2.65;;;6.20;99.90;;;;;;5099180;28;20040;-76
2023/10/20 10:58:12;;;;;;;4.50;2.15;;;6.20;99.90;;;;;;5096196;28;20066;-77
2023/10/20 11:00:45;;;;;;;4.03;2.15;;;6.10;99.90;;;;;;5093509;28;20676;-75
2023/10/20 11:03:13;;;;;;;3.05;2.15;;;6.30;99.90;;;;;;5080665;28;20052;-75
2023/10/20 11:05:43;;;;;;;4.63;2.85;;;6.10;99.90;;;;;;5103163;28;20110;-75
2023/10/20 11:08:12;;;;;;;4.63;2.58;;;6.10;99.90;;;;;;5087858;28;20469;-76
2023/10/20 11:10:43;;;;;;;4.38;2.22;;;6.10;99.90;;;;;;5092680;28;20040;-77
2023/10/20 11:13:21;;;;;;;3.17;2.00;;;6.10;99.90;;;;;;5080956;28;20082;-75
2023/10/20 11:15:47;;;;;;;5.10;2.50;;;6.10;99.90;;;;;;5092232;28;20127;-76
2023/10/20 11:18:16;;;;;;;3.53;2.30;;;6.10;99.90;;;;;;5110650;27;20087;-75
2023/10/20 11:20:42;;;;;;;4.03;2.55;;;6.10;99.90;;;;;;5113082;28;20044;-74
2023/10/20 11:23:09;;;;;;;3.22;2.17;;;6.10;99.90;;;;;;5099950;28;20150;-76
2023/10/20 11:25:36;;;;;;;3.70;2.60;;;6.10;99.90;;;;;;5096296;28;20048;-75
2023/10/20 11:28:05;;;;;;;4.30;2.60;;;6.00;99.90;;;;;;5088179;28;20097;-75
2023/10/20 11:30:41;;;;;;;5.43;2.28;;;6.00;99.90;;;;;;5093588;28;20471;-76
2023/10/20 11:33:11;;;;;;;6.95;2.83;;;6.00;99.90;;;;;;5084527;28;20040;-75
2023/10/20 11:35:37;;;;;;;4.05;2.25;;;6.00;99.90;;;;;;5097902;28;20358;-76
2023/10/20 11:38:05;;;;;;;4.55;2.25;;;6.40;99.90;;;;;;5091715;28;20130;-76
2023/10/20 11:40:31;;;;;;;3.53;2.25;;;6.00;99.90;;;;;;5092886;28;20108;-76
2023/10/20 11:42:57;;;;;;;3.10;2.10;;;6.00;99.90;;;;;;5087805;28;20036;-76
2023/10/20 11:45:23;;;;;;;5.13;2.72;;;6.00;99.90;;;;;;5079317;28;20074;-75
2023/10/20 11:47:48;;;;;;;6.55;2.42;;;6.10;99.90;;;;;;5089348;28;20052;-75
2023/10/20 11:50:23;;;;;;;5.55;2.63;;;6.10;99.90;;;;;;5082907;28;20037;-75
2023/10/20 11:52:49;;;;;;;3.85;2.70;;;6.20;99.90;;;;;;5081857;28;20549;-76
2023/10/20 11:55:15;;;;;;;5.32;2.55;;;6.00;99.90;;;;;;5075101;28;20032;-75
2023/10/20 11:57:41;;;;;;;5.30;2.80;;;7.10;99.90;;;;;;5087856;28;20454;-76
2023/10/20 12:00:09;;;;;;;6.40;2.63;;;6.00;99.90;;;;;;5092201;28;20039;-75
2023/10/20 12:02:41;;;;;;;5.65;2.53;;;6.00;99.90;;;;;;5080183;28;20098;-76
2023/10/20 12:05:08;;;;;;;3.22;2.20;;;6.00;99.90;;;;;;5071640;28;20096;-76
2023/10/20 12:07:34;;;;;;;6.25;2.50;;;6.00;99.90;;;;;;5093001;28;20040;-76
2023/10/20 12:10:00;;;;;;;2.88;2.30;;;6.10;99.90;;;;;;5106236;28;20055;-75
2023/10/20 12:12:26;;;;;;;3.88;2.63;;;6.10;99.90;;;;;;5094630;28;20048;-76
2023/10/20 12:14:52;;;;;;;5.20;2.85;;;6.00;99.90;;;;;;5096081;28;20044;-76
2023/10/20 12:17:18;;;;;;;5.30;2.80;;;6.10;99.90;;;;;;5096493;28;20040;-75
2023/10/20 12:19:46;;;;;;;4.05;2.70;;;6.10;99.90;;;;;;5072959;28;20104;-75
2023/10/20 12:22:12;;;;;;;3.45;2.30;;;6.10;99.90;;;;;;5089043;28;20046;-76
2023/10/20 12:24:38;;;;;;;3.33;2.25;;;6.00;99.90;;;;;;5097768;28;20512;-76
2023/10/20 12:27:03;;;;;;;3.83;2.40;;;6.10;99.90;;;;;;5086667;28;20041;-75
2023/10/20 12:29:32;;;;;;;4.03;2.22;;;6.10;99.90;;;;;;5096421;28;20044;-76
2023/10/20 12:32:02;;;;;;;3.45;2.38;;;6.10;99.90;;;;;;5087880;28;20040;-76
2023/10/20 12:34:28;;;;;;;5.25;2.35;;;6.10;99.90;;;;;;5094204;28;20044;-76
2023/10/20 12:36:54;;;;;;;3.72;2.30;;;6.10;99.90;;;;;;5091595;28;20048;-75
2023/10/20 12:39:20;;;;;;;3.55;2.40;;;6.10;99.90;;;;;;5097560;28;20129;-77
2023/10/20 12:41:47;;;;;;;3.90;2.50;;;6.10;99.90;;;;;;5095894;28;20043;-76
2023/10/20 12:44:13;;;;;;;3.33;2.08;;;6.10;99.90;;;;;;5105599;28;20036;-77
2023/10/20 12:46:39;;;;;;;5.88;2.33;;;7.00;99.90;;;;;;5091822;28;20052;-76
2023/10/20 12:49:08;;;;;;;3.45;2.22;;;6.10;99.90;;;;;;5110443;28;20036;-75
2023/10/20 12:51:34;;;;;;;3.70;2.35;;;6.10;99.90;;;;;;5091808;28;20460;-75
2023/10/20 12:54:01;;;;;;;4.18;2.40;;;6.20;99.90;;;;;;5079239;28;20566;-75
2023/10/20 12:56:27;;;;;;;3.40;2.10;;;6.10;99.90;;;;;;5076611;28;20075;-75
2023/10/20 12:58:54;;;;;;;3.50;2.35;;;6.10;99.90;;;;;;5087445;28;20043;-76
2023/10/20 13:01:20;;;;;;;3.65;2.13;;;6.10;99.90;;;;;;5088347;28;20094;-77
2023/10/20 13:03:48;;;;;;;4.15;2.58;;;6.10;99.90;;;;;;5091904;28;20055;-77
2023/10/20 13:06:15;;;;;;;6.75;3.20;;;6.10;99.90;;;;;;5094523;28;20048;-76
2023/10/20 13:08:43;;;;;;;6.80;2.67;;;6.10;99.90;;;;;;5090066;28;20140;-75
2023/10/20 13:11:10;;;;;;;4.68;2.65;;;6.10;99.90;;;;;;5079363;28;20033;-75
2023/10/20 13:13:36;;;;;;;4.15;2.60;;;6.10;99.90;;;;;;5086309;28;20109;-76
2023/10/20 13:16:06;;;;;;;4.30;2.30;;;6.10;99.90;;;;;;5093873;28;20041;-76
2023/10/20 13:18:32;;;;;;;2.58;1.85;;;6.10;99.90;;;;;;5086686;28;20039;-75
2023/10/20 13:21:02;;;;;;;4.55;2.25;;;6.10;99.90;;;;;;5091683;28;20043;-75
2023/10/20 13:23:28;;;;;;;4.80;2.33;;;6.10;99.90;;;;;;5082002;28;20036;-76
2023/10/20 13:26:04;;;;;;;5.22;2.05;;;6.10;99.90;;;;;;5089619;28;20032;-75
2023/10/20 13:28:34;;;;;;;4.80;2.30;;;6.00;99.90;;;;;;5081748;28;20041;-76
2023/10/20 13:31:08;;;;;;;3.90;2.15;;;6.00;99.90;;;;;;5108293;28;20093;-75
2023/10/20 13:33:34;;;;;;;2.78;1.95;;;6.10;99.90;;;;;;5083027;28;20098;-75
2023/10/20 13:36:02;;;;;;;2.95;2.00;;;6.00;99.90;;;;;;5083695;28;20047;-75